createdAt,value
2019-05-23T00:08:30.249Z,48.83
2019-05-23T00:18:36.012Z,48.59
2019-05-23T00:28:41.453Z,48.61
2019-05-23T00:38:46.541Z,43.23
2019-05-23T00:48:51.310Z,43.23
2019-05-23T00:58:55.098Z,43.22
2019-05-23T01:08:59.445Z,44.44
2019-05-23T01:19:04.600Z,45.46
2019-05-23T01:29:09.757Z,46.71
2019-05-23T01:39:13.990Z,46.11
2019-05-23T01:49:19.017Z,47.35
2019-05-23T01:59:23.203Z,47.70
2019-05-23T02:09:26.766Z,47.84
2019-05-23T02:19:30.346Z,48.01
2019-05-23T02:29:34.032Z,47.83
2019-05-23T02:39:51.208Z,48.55
2019-05-23T02:49:56.425Z,48.17
2019-05-23T03:00:03.723Z,48.56
2019-05-23T03:10:10.395Z,48.54
2019-05-23T03:20:15.558Z,48.30
2019-05-23T03:30:26.665Z,48.05
2019-05-23T03:40:32.263Z,48.84
2019-05-23T03:50:36.823Z,48.30
2019-05-23T04:00:41.943Z,50.00
2019-05-23T04:10:46.015Z,49.17
2019-05-23T04:20:49.672Z,49.64
2019-05-23T04:30:53.321Z,49.64
2019-05-23T04:40:56.890Z,49.06
2019-05-23T04:51:00.831Z,48.71
2019-05-23T05:01:05.243Z,48.24
2019-05-23T05:11:09.689Z,46.84
2019-05-23T05:21:13.223Z,38.61
2019-05-23T05:31:16.827Z,37.50
2019-05-23T05:41:21.159Z,38.41
2019-05-23T05:51:24.794Z,39.46
2019-05-23T06:01:34.002Z,41.67
2019-05-23T06:11:36.484Z,42.80
2019-05-23T06:21:40.352Z,44.39
2019-05-23T06:31:45.017Z,45.39
2019-05-23T06:41:48.802Z,45.71
2019-05-23T06:51:52.403Z,45.92
2019-05-23T07:01:55.991Z,45.93
2019-05-23T07:11:59.708Z,46.29
2019-05-23T07:22:03.630Z,46.66
2019-05-23T07:32:07.577Z,46.23
2019-05-23T07:42:11.366Z,46.20
2019-05-23T07:52:15.796Z,46.53
2019-05-23T08:02:28.094Z,46.50
2019-05-23T08:12:31.714Z,47.71
2019-05-23T08:22:35.309Z,47.25
2019-05-23T08:32:38.999Z,46.91
2019-05-23T08:42:42.573Z,47.91
2019-05-23T08:52:46.139Z,46.86
2019-05-23T09:02:51.360Z,47.83
2019-05-23T09:12:55.154Z,47.28
2019-05-23T09:22:59.040Z,47.91
2019-05-23T09:33:02.787Z,47.12
2019-05-23T09:43:06.416Z,45.83
2019-05-23T09:53:09.988Z,37.07
2019-05-23T10:03:13.538Z,37.43
2019-05-23T10:13:17.101Z,36.66
2019-05-23T10:23:20.671Z,37.71
2019-05-23T10:33:24.260Z,39.00
2019-05-23T10:43:28.668Z,39.41
2019-05-23T10:53:32.274Z,40.29
2019-05-23T11:03:35.923Z,41.37
2019-05-23T11:13:39.920Z,42.53
2019-05-23T11:23:47.968Z,43.31
2019-05-23T11:33:51.534Z,43.92
2019-05-23T11:43:55.092Z,44.14
2019-05-23T11:54:07.674Z,44.34
2019-05-23T12:04:09.026Z,44.40
2019-05-23T12:14:12.598Z,44.61
2019-05-23T12:24:20.312Z,44.10
2019-05-23T12:34:23.860Z,44.78
2019-05-23T12:44:27.846Z,44.60
2019-05-23T12:54:32.944Z,44.73
2019-05-23T13:04:36.913Z,44.94
2019-05-23T13:14:40.583Z,45.02
2019-05-23T13:24:52.469Z,45.05
2019-05-23T13:34:49.477Z,45.23
2019-05-23T13:44:53.041Z,46.10
2019-05-23T13:54:56.845Z,45.87
2019-05-23T14:05:00.514Z,44.97
2019-05-23T14:15:05.710Z,43.58
2019-05-23T14:25:09.561Z,41.72
2019-05-23T14:35:14.702Z,42.31
2019-05-23T14:45:25.615Z,43.41
2019-05-23T14:55:29.848Z,42.50
2019-05-23T15:05:33.926Z,42.94
2019-05-23T15:15:37.575Z,43.56
2019-05-23T15:25:41.124Z,44.21
2019-05-23T15:35:45.646Z,43.68
2019-05-23T15:45:49.586Z,44.50
2019-05-23T15:56:24.081Z,44.67
2019-05-23T16:06:10.561Z,43.86
2019-05-23T16:16:14.180Z,45.07
2019-05-23T16:26:17.791Z,45.06
2019-05-23T16:36:21.462Z,45.00
2019-05-23T16:46:27.063Z,45.19
2019-05-23T16:56:35.376Z,45.53
2019-05-23T17:06:40.685Z,45.58
2019-05-23T17:16:51.381Z,45.78
2019-05-23T17:27:02.491Z,45.89
2019-05-23T17:37:07.898Z,45.94
2019-05-23T17:47:11.695Z,46.37
2019-05-23T17:57:15.654Z,46.35
2019-05-23T18:07:20.771Z,45.90
2019-05-23T18:17:25.129Z,44.37
2019-05-23T18:27:29.216Z,41.53
2019-05-23T18:37:32.792Z,41.95
2019-05-23T18:47:38.114Z,43.06
2019-05-23T18:57:42.022Z,43.40
2019-05-23T19:07:46.295Z,43.41
2019-05-23T19:17:49.893Z,44.40
2019-05-23T19:27:54.020Z,44.96
2019-05-23T19:37:57.765Z,45.19
2019-05-23T19:48:01.327Z,45.30
2019-05-23T19:58:06.365Z,45.55
2019-05-23T20:08:10.158Z,45.80
2019-05-23T20:18:13.819Z,46.07
2019-05-23T20:28:17.456Z,46.13
2019-05-23T20:38:21.050Z,46.19
2019-05-23T20:48:25.128Z,46.49
2019-05-23T20:58:28.821Z,46.57
2019-05-23T21:08:32.378Z,46.76
2019-05-23T21:18:36.002Z,46.89
2019-05-23T21:28:39.620Z,46.82
2019-05-23T21:38:43.162Z,46.81
2019-05-23T21:48:46.833Z,46.73
2019-05-23T21:58:50.413Z,46.88
2019-05-23T22:08:54.557Z,42.94
2019-05-23T22:18:58.682Z,36.94
2019-05-23T22:29:02.830Z,37.86
2019-05-23T22:39:08.190Z,40.74
2019-05-23T22:49:11.739Z,43.32
2019-05-23T22:59:15.666Z,44.39
2019-05-23T23:09:20.640Z,45.63
2019-05-23T23:19:24.279Z,46.59
2019-05-23T23:29:27.913Z,47.27
2019-05-23T23:39:32.200Z,47.81
2019-05-23T23:49:53.509Z,47.83
2019-05-23T23:59:58.859Z,48.32
